createdAt,value
2023-05-30T00:01:52.242Z,44.59
2023-05-30T00:04:21.388Z,42.93
2023-05-30T00:06:50.355Z,43.24
2023-05-30T00:09:18.339Z,41.76
2023-05-30T00:11:46.215Z,42.44
2023-05-30T00:14:21.666Z,42.86
2023-05-30T00:16:49.789Z,43.20
2023-05-30T00:19:17.673Z,42.46
2023-05-30T00:21:47.112Z,42.49
2023-05-30T00:24:14.976Z,43.02
2023-05-30T00:26:42.850Z,43.73
2023-05-30T00:29:10.927Z,42.25
2023-05-30T00:31:42.379Z,43.98
2023-05-30T00:34:10.675Z,42.05
2023-05-30T00:36:40.015Z,41.60
2023-05-30T00:39:08.107Z,43.36
2023-05-30T00:41:38.609Z,43.27
2023-05-30T00:44:06.686Z,40.96
2023-05-30T00:46:34.876Z,41.84
2023-05-30T00:49:04.261Z,42.34
2023-05-30T00:51:33.672Z,42.58
2023-05-30T00:54:03.470Z,45.14
2023-05-30T00:56:32.494Z,43.62
2023-05-30T00:59:01.157Z,43.33
2023-05-30T01:01:30.469Z,44.27
2023-05-30T01:03:58.639Z,44.02
2023-05-30T01:06:30.678Z,43.19
2023-05-30T01:09:00.328Z,44.25
2023-05-30T01:11:36.757Z,45.29
2023-05-30T01:14:11.215Z,44.89
2023-05-30T01:16:45.355Z,46.31
2023-05-30T01:19:35.061Z,45.25
2023-05-30T01:22:17.682Z,45.05
2023-05-30T01:24:59.408Z,45.58
2023-05-30T01:27:42.009Z,45.13
2023-05-30T01:30:12.505Z,46.94
2023-05-30T01:32:40.785Z,45.43
2023-05-30T01:35:23.173Z,45.56
2023-05-30T01:37:52.363Z,43.85
2023-05-30T01:40:24.911Z,45.14
2023-05-30T01:43:01.714Z,46.33
2023-05-30T01:45:41.262Z,44.72
2023-05-30T01:48:16.858Z,46.22
2023-05-30T01:50:50.292Z,46.60
2023-05-30T01:53:24.493Z,47.91
2023-05-30T01:55:57.014Z,47.18
2023-05-30T01:58:25.746Z,45.71
2023-05-30T02:00:56.057Z,47.94
2023-05-30T02:03:25.992Z,46.23
2023-05-30T02:05:54.173Z,45.82
2023-05-30T02:08:22.122Z,45.48
2023-05-30T02:10:50.128Z,46.69
2023-05-30T02:13:20.277Z,46.68
2023-05-30T02:15:48.180Z,47.83
2023-05-30T02:18:18.407Z,47.38
2023-05-30T02:20:46.695Z,47.93
2023-05-30T02:23:14.962Z,46.10
2023-05-30T02:25:42.888Z,46.51
2023-05-30T02:28:10.932Z,46.65
2023-05-30T02:30:39.321Z,46.65
2023-05-30T02:33:07.622Z,45.46
2023-05-30T02:35:38.502Z,45.31
2023-05-30T02:38:06.650Z,48.40
2023-05-30T02:40:34.748Z,46.12
2023-05-30T02:43:09.679Z,47.70
2023-05-30T02:45:45.452Z,47.29
2023-05-30T02:48:14.570Z,45.66
2023-05-30T02:50:44.535Z,49.52
2023-05-30T02:53:18.353Z,48.09
2023-05-30T02:55:47.935Z,47.22
2023-05-30T02:58:37.997Z,50.07
2023-05-30T03:01:13.046Z,47.91
2023-05-30T03:03:42.901Z,47.30
2023-05-30T03:06:32.224Z,47.49
2023-05-30T03:09:12.252Z,47.37
2023-05-30T03:11:40.256Z,46.81
2023-05-30T03:14:08.596Z,46.74
2023-05-30T03:16:37.713Z,47.27
2023-05-30T03:19:08.212Z,47.71
2023-05-30T03:21:39.112Z,47.21
2023-05-30T03:24:08.236Z,49.20
2023-05-30T03:26:42.868Z,47.52
2023-05-30T03:29:11.488Z,49.21
2023-05-30T03:31:39.567Z,48.64
2023-05-30T03:34:09.304Z,47.18
2023-05-30T03:36:39.249Z,47.98
2023-05-30T03:39:07.558Z,48.11
2023-05-30T03:41:35.682Z,46.78
2023-05-30T03:44:03.871Z,49.37
2023-05-30T03:46:33.061Z,47.03
2023-05-30T03:49:01.233Z,46.17
2023-05-30T03:51:29.666Z,49.18
2023-05-30T03:53:58.918Z,46.26
2023-05-30T03:56:27.854Z,46.67
2023-05-30T03:58:55.706Z,44.49
2023-05-30T04:01:24.460Z,46.62
2023-05-30T04:03:52.558Z,45.07
2023-05-30T04:06:20.441Z,47.14
2023-05-30T04:08:48.279Z,45.09
2023-05-30T04:11:19.337Z,43.72
2023-05-30T04:13:47.266Z,42.71
2023-05-30T04:16:16.246Z,42.22
2023-05-30T04:18:47.040Z,42.63
2023-05-30T04:21:15.505Z,42.97
2023-05-30T04:23:45.051Z,44.29
2023-05-30T04:26:13.283Z,45.24
2023-05-30T04:28:43.140Z,45.03
2023-05-30T04:31:20.431Z,44.65
2023-05-30T04:33:51.672Z,45.76
2023-05-30T04:36:20.724Z,48.05
2023-05-30T04:38:53.436Z,45.69
2023-05-30T04:41:25.904Z,45.87
2023-05-30T04:43:58.453Z,44.73
2023-05-30T04:46:28.905Z,44.94
2023-05-30T04:49:02.097Z,45.57
2023-05-30T04:51:31.788Z,44.67
2023-05-30T04:54:01.476Z,43.53
2023-05-30T04:56:29.440Z,42.81
2023-05-30T04:58:58.945Z,45.46
2023-05-30T05:01:26.952Z,46.66
2023-05-30T05:03:55.230Z,50.81
2023-05-30T05:06:23.245Z,50.00
2023-05-30T05:08:51.194Z,51.74
2023-05-30T05:11:19.173Z,48.14
2023-05-30T05:13:47.182Z,50.83
2023-05-30T05:16:16.498Z,48.37
2023-05-30T05:18:44.820Z,46.58
2023-05-30T05:21:12.726Z,48.36
2023-05-30T05:23:41.174Z,50.86
2023-05-30T05:26:09.168Z,51.87
2023-05-30T05:28:37.106Z,48.73
2023-05-30T05:31:05.094Z,47.76
2023-05-30T05:33:34.339Z,49.65
2023-05-30T05:36:03.419Z,51.48
2023-05-30T05:38:31.343Z,49.07
2023-05-30T05:40:59.426Z,46.18
2023-05-30T05:43:27.532Z,46.81
2023-05-30T05:45:56.707Z,48.79
2023-05-30T05:48:24.786Z,47.33
2023-05-30T05:50:54.103Z,47.50
2023-05-30T05:53:22.173Z,45.41
2023-05-30T05:55:49.989Z,45.02
2023-05-30T05:58:17.953Z,42.05
2023-05-30T06:00:46.001Z,47.90
2023-05-30T06:03:14.058Z,47.68
2023-05-30T06:05:42.099Z,48.05
2023-05-30T06:08:11.325Z,46.53
2023-05-30T06:10:39.279Z,44.85
2023-05-30T06:13:09.558Z,46.76
2023-05-30T06:15:37.665Z,46.43
2023-05-30T06:18:06.167Z,44.65
2023-05-30T06:20:34.268Z,45.89
2023-05-30T06:23:02.195Z,45.86
2023-05-30T06:25:32.350Z,48.88
2023-05-30T06:28:00.219Z,44.01
2023-05-30T06:30:28.084Z,40.85
2023-05-30T06:32:56.074Z,41.87
2023-05-30T06:35:24.008Z,44.04
2023-05-30T06:37:51.977Z,42.54
2023-05-30T06:40:20.051Z,39.76
2023-05-30T06:42:50.192Z,39.86
2023-05-30T06:45:20.608Z,43.85
2023-05-30T06:47:49.073Z,44.50
2023-05-30T06:50:17.014Z,41.49
2023-05-30T06:52:44.897Z,43.66
2023-05-30T06:55:13.383Z,42.65
2023-05-30T06:57:41.293Z,40.59
2023-05-30T07:00:12.088Z,38.72
2023-05-30T07:02:40.152Z,42.27
2023-05-30T07:05:08.894Z,41.57
2023-05-30T07:07:37.888Z,39.61
2023-05-30T07:10:06.838Z,36.52
2023-05-30T07:12:35.022Z,38.67
2023-05-30T07:15:03.986Z,38.30
2023-05-30T07:17:33.242Z,35.30
2023-05-30T07:20:01.062Z,38.82
2023-05-30T07:22:28.876Z,41.22
2023-05-30T07:24:56.729Z,41.87
2023-05-30T07:27:24.503Z,38.42
2023-05-30T07:29:52.368Z,41.32
2023-05-30T07:32:20.252Z,38.10
2023-05-30T07:34:49.474Z,35.58
2023-05-30T07:37:17.387Z,34.74
2023-05-30T07:39:45.641Z,41.04
2023-05-30T07:42:13.622Z,40.81
2023-05-30T07:44:41.659Z,38.44
2023-05-30T07:47:09.680Z,34.89
2023-05-30T07:49:37.540Z,34.60
2023-05-30T07:52:07.128Z,34.55
2023-05-30T07:54:35.092Z,34.10
2023-05-30T07:57:03.106Z,35.15
2023-05-30T07:59:31.035Z,38.63
2023-05-30T08:02:59.037Z,37.78
2023-05-30T08:05:32.830Z,40.72
2023-05-30T08:08:02.020Z,40.09
2023-05-30T08:10:29.825Z,41.87
2023-05-30T08:12:57.618Z,38.55
2023-05-30T08:15:25.797Z,34.81
2023-05-30T08:17:54.582Z,34.23
2023-05-30T08:20:22.547Z,32.98
2023-05-30T08:22:51.205Z,32.31
2023-05-30T08:25:22.903Z,33.53
2023-05-30T08:27:50.893Z,34.99
2023-05-30T08:30:18.997Z,32.34
2023-05-30T08:32:47.120Z,30.85
2023-05-30T08:35:15.114Z,35.15
2023-05-30T08:37:44.788Z,37.50
2023-05-30T08:40:14.983Z,34.25
2023-05-30T08:42:44.802Z,34.04
2023-05-30T08:45:13.439Z,34.28
2023-05-30T08:47:41.818Z,37.66
2023-05-30T08:50:13.312Z,37.72
2023-05-30T08:52:44.847Z,36.50
2023-05-30T08:55:14.198Z,38.16
2023-05-30T08:57:51.993Z,37.26
2023-05-30T09:00:20.353Z,37.74
2023-05-30T09:02:48.411Z,34.64
2023-05-30T09:05:18.025Z,34.07
2023-05-30T09:07:46.941Z,34.50
2023-05-30T09:10:15.322Z,35.45
2023-05-30T09:12:44.157Z,36.81
2023-05-30T09:15:13.726Z,35.97
2023-05-30T09:17:41.697Z,33.38
2023-05-30T09:20:10.647Z,31.72
2023-05-30T09:22:39.142Z,32.90
2023-05-30T09:25:07.735Z,32.31
2023-05-30T09:27:37.395Z,32.76
2023-05-30T09:30:09.225Z,32.43
2023-05-30T09:32:39.903Z,34.59
2023-05-30T09:35:21.385Z,35.15
2023-05-30T09:37:49.696Z,35.03
2023-05-30T09:40:17.946Z,33.38
2023-05-30T09:42:49.385Z,36.89
2023-05-30T09:45:20.124Z,38.21
2023-05-30T09:47:51.296Z,34.77
2023-05-30T09:50:21.102Z,33.66
2023-05-30T09:52:49.890Z,36.46
2023-05-30T09:55:18.287Z,36.38
2023-05-30T09:57:50.570Z,36.37
2023-05-30T10:00:24.049Z,37.82
2023-05-30T10:02:56.802Z,33.80
2023-05-30T10:05:26.295Z,38.91
2023-05-30T10:07:55.755Z,36.42
2023-05-30T10:10:24.172Z,36.75
2023-05-30T10:12:53.896Z,40.20
2023-05-30T10:15:24.507Z,36.03
2023-05-30T10:17:57.792Z,37.07
2023-05-30T10:20:28.754Z,38.75
2023-05-30T10:22:58.401Z,38.06
2023-05-30T10:25:30.093Z,36.61
2023-05-30T10:28:02.304Z,36.55
2023-05-30T10:30:31.983Z,38.69
2023-05-30T10:33:05.208Z,37.37
2023-05-30T10:35:35.802Z,39.36
2023-05-30T10:38:07.827Z,38.75
2023-05-30T10:40:54.811Z,35.74
2023-05-30T10:43:35.086Z,36.06
2023-05-30T10:46:16.725Z,35.61
2023-05-30T10:48:52.509Z,34.73
2023-05-30T10:51:21.334Z,35.05
2023-05-30T10:53:53.504Z,35.08
2023-05-30T10:56:42.724Z,35.19
2023-05-30T10:59:15.453Z,35.91
2023-05-30T11:01:43.735Z,35.96
2023-05-30T11:04:14.781Z,36.44
2023-05-30T11:06:45.906Z,34.84
2023-05-30T11:09:16.025Z,38.54
2023-05-30T11:11:45.640Z,36.18
2023-05-30T11:14:14.977Z,36.51
2023-05-30T11:16:50.535Z,35.46
2023-05-30T11:19:22.214Z,37.37
2023-05-30T11:21:57.380Z,34.94
2023-05-30T11:24:25.925Z,37.28
2023-05-30T11:26:54.882Z,36.33
2023-05-30T11:29:37.533Z,34.24
2023-05-30T11:32:09.183Z,32.25
2023-05-30T11:34:39.075Z,37.49
2023-05-30T11:37:08.141Z,37.95
2023-05-30T11:39:37.308Z,38.15
2023-05-30T11:42:06.736Z,37.08
2023-05-30T11:44:34.760Z,37.50
2023-05-30T11:47:04.747Z,35.89
2023-05-30T11:49:33.648Z,36.60
2023-05-30T11:52:03.048Z,37.47
2023-05-30T11:54:31.129Z,35.49
2023-05-30T11:56:59.200Z,33.43
2023-05-30T11:59:29.140Z,32.50
2023-05-30T12:01:59.024Z,36.12
2023-05-30T12:04:28.335Z,37.44
2023-05-30T12:07:00.203Z,37.29
2023-05-30T12:09:30.023Z,34.12
2023-05-30T12:11:59.817Z,35.11
2023-05-30T12:14:41.054Z,35.77
2023-05-30T12:17:14.251Z,33.49
2023-05-30T12:19:44.018Z,32.10
2023-05-30T12:22:12.880Z,31.99
2023-05-30T12:24:42.240Z,32.73
2023-05-30T12:27:18.501Z,33.81
2023-05-30T12:29:46.647Z,34.36
2023-05-30T12:32:14.829Z,32.63
2023-05-30T12:34:44.942Z,35.19
2023-05-30T12:37:14.600Z,35.64
2023-05-30T12:39:49.098Z,34.09
2023-05-30T12:42:23.010Z,34.17
2023-05-30T12:44:52.167Z,40.22
2023-05-30T12:47:20.108Z,37.47
2023-05-30T12:49:48.379Z,36.59
2023-05-30T12:52:17.403Z,35.26
2023-05-30T12:54:46.473Z,31.94
2023-05-30T12:57:16.313Z,37.31
2023-05-30T12:59:44.154Z,34.72
2023-05-30T13:02:12.878Z,31.98
2023-05-30T13:04:41.743Z,37.03
2023-05-30T13:07:11.043Z,37.68
2023-05-30T13:09:39.477Z,36.27
2023-05-30T13:12:10.095Z,32.05
2023-05-30T13:14:40.020Z,30.89
2023-05-30T13:17:08.992Z,32.42
2023-05-30T13:19:37.199Z,33.31
2023-05-30T13:22:06.259Z,34.67
2023-05-30T13:24:34.458Z,35.86
2023-05-30T13:27:03.023Z,36.50
2023-05-30T13:29:31.043Z,34.40
2023-05-30T13:32:01.046Z,32.01
2023-05-30T13:34:29.664Z,36.65
2023-05-30T13:36:57.799Z,36.06
2023-05-30T13:39:26.590Z,37.87
2023-05-30T13:41:54.608Z,36.75
2023-05-30T13:44:22.609Z,33.35
2023-05-30T13:46:50.596Z,32.01
2023-05-30T13:49:23.094Z,33.66
2023-05-30T13:51:51.107Z,32.47
2023-05-30T13:54:19.067Z,35.43
2023-05-30T13:56:47.029Z,32.76
2023-05-30T13:59:15.107Z,31.94
2023-05-30T14:01:43.336Z,33.63
2023-05-30T14:04:12.017Z,35.85
2023-05-30T14:06:41.522Z,36.28
2023-05-30T14:09:09.508Z,34.74
2023-05-30T14:11:38.048Z,32.87
2023-05-30T14:14:06.793Z,32.82
2023-05-30T14:16:35.123Z,34.34
2023-05-30T14:19:05.566Z,37.02
2023-05-30T14:21:35.928Z,36.27
2023-05-30T14:24:07.433Z,35.35
2023-05-30T14:26:35.728Z,36.79
2023-05-30T14:29:04.904Z,35.12
2023-05-30T14:31:32.992Z,35.33
2023-05-30T14:34:01.010Z,34.46
2023-05-30T14:36:29.225Z,33.55
2023-05-30T14:38:57.202Z,34.31
2023-05-30T14:41:26.905Z,35.86
2023-05-30T14:43:54.955Z,32.57
2023-05-30T14:46:23.173Z,31.88
2023-05-30T14:48:51.240Z,29.07
2023-05-30T14:51:19.342Z,23.60
2023-05-30T14:53:48.125Z,29.27
2023-05-30T14:56:16.444Z,25.61
2023-05-30T14:58:46.011Z,30.00
2023-05-30T15:01:31.689Z,27.28
2023-05-30T15:04:02.280Z,28.82
2023-05-30T15:06:30.401Z,23.77
2023-05-30T15:08:58.852Z,24.35
2023-05-30T15:11:27.510Z,24.93
2023-05-30T15:13:57.463Z,23.08
2023-05-30T15:16:27.227Z,24.51
2023-05-30T15:18:55.686Z,25.89
2023-05-30T15:21:28.382Z,26.84
2023-05-30T15:23:56.458Z,23.50
2023-05-30T15:26:25.118Z,24.80
2023-05-30T15:28:53.092Z,24.32
2023-05-30T15:31:24.964Z,25.31
2023-05-30T15:33:53.304Z,26.27
2023-05-30T15:36:22.045Z,23.33
2023-05-30T15:38:50.162Z,22.70
2023-05-30T15:41:18.329Z,23.52
2023-05-30T15:43:46.236Z,25.32
2023-05-30T15:46:18.846Z,24.06
2023-05-30T15:48:48.612Z,25.51
2023-05-30T15:51:16.666Z,27.39
2023-05-30T15:53:44.579Z,26.39
2023-05-30T15:56:13.336Z,25.42
2023-05-30T15:58:56.980Z,25.31
2023-05-30T16:01:25.075Z,28.90
2023-05-30T16:03:57.744Z,28.60
2023-05-30T16:06:26.086Z,27.83
2023-05-30T16:08:53.996Z,26.66
2023-05-30T16:11:22.119Z,26.97
2023-05-30T16:13:50.533Z,27.26
2023-05-30T16:16:18.767Z,26.21
2023-05-30T16:18:46.716Z,25.26
2023-05-30T16:21:16.051Z,25.45
2023-05-30T16:23:44.226Z,25.06
2023-05-30T16:26:12.407Z,29.33
2023-05-30T16:28:40.469Z,30.03
2023-05-30T16:31:09.655Z,32.29
2023-05-30T16:33:37.893Z,27.89
2023-05-30T16:36:08.028Z,28.03
2023-05-30T16:38:39.504Z,26.77
2023-05-30T16:41:13.338Z,29.01
2023-05-30T16:43:43.289Z,30.91
2023-05-30T16:46:14.392Z,30.20
2023-05-30T16:48:42.422Z,31.56
2023-05-30T16:51:10.812Z,29.39
2023-05-30T16:53:40.502Z,30.97
2023-05-30T16:56:16.349Z,29.19
2023-05-30T16:58:45.481Z,31.28
2023-05-30T17:01:13.991Z,28.48
2023-05-30T17:03:42.511Z,28.41
2023-05-30T17:06:11.513Z,31.39
2023-05-30T17:08:42.345Z,32.75
2023-05-30T17:11:12.073Z,30.84
2023-05-30T17:13:40.503Z,31.70
2023-05-30T17:16:09.237Z,33.43
2023-05-30T17:18:37.201Z,34.42
2023-05-30T17:21:05.812Z,33.46
2023-05-30T17:23:34.613Z,34.92
2023-05-30T17:26:04.439Z,33.99
2023-05-30T17:28:34.618Z,34.93
2023-05-30T17:31:03.173Z,35.00
2023-05-30T17:33:31.827Z,34.37
2023-05-30T17:35:59.912Z,34.93
2023-05-30T17:38:28.351Z,35.85
2023-05-30T17:40:56.647Z,35.10
2023-05-30T17:43:26.271Z,33.71
2023-05-30T17:45:54.341Z,35.00
2023-05-30T17:48:22.643Z,36.13
2023-05-30T17:50:51.492Z,35.32
2023-05-30T17:53:19.936Z,34.50
2023-05-30T17:55:48.506Z,34.52
2023-05-30T17:58:17.291Z,34.91
2023-05-30T18:00:48.065Z,35.15
2023-05-30T18:03:16.765Z,34.01
2023-05-30T18:05:45.004Z,34.78
2023-05-30T18:08:16.442Z,34.81
2023-05-30T18:10:46.212Z,36.61
2023-05-30T18:13:15.205Z,35.45
2023-05-30T18:15:50.342Z,35.75
2023-05-30T18:18:18.700Z,35.45
2023-05-30T18:20:46.668Z,36.54
2023-05-30T18:23:19.981Z,35.52
2023-05-30T18:25:48.527Z,36.06
2023-05-30T18:28:16.949Z,36.04
2023-05-30T18:30:46.698Z,36.39
2023-05-30T18:33:14.782Z,35.37
2023-05-30T18:35:42.804Z,35.15
2023-05-30T18:38:10.856Z,34.92
2023-05-30T18:40:39.327Z,36.34
2023-05-30T18:43:07.639Z,35.86
2023-05-30T18:45:36.195Z,36.50
2023-05-30T18:48:05.864Z,35.77
2023-05-30T18:50:35.062Z,36.09
2023-05-30T18:53:03.082Z,36.20
2023-05-30T18:55:31.200Z,36.45
2023-05-30T18:57:59.331Z,37.18
2023-05-30T19:00:27.682Z,36.52
2023-05-30T19:02:58.112Z,36.23
2023-05-30T19:05:27.805Z,36.85
2023-05-30T19:07:56.904Z,36.67
2023-05-30T19:10:25.124Z,37.72
2023-05-30T19:12:54.292Z,36.93
2023-05-30T19:15:22.295Z,36.69
2023-05-30T19:18:04.336Z,37.13
2023-05-30T19:20:34.129Z,37.20
2023-05-30T19:23:02.429Z,38.36
2023-05-30T19:25:30.883Z,37.85
2023-05-30T19:28:06.988Z,37.92
2023-05-30T19:30:35.592Z,38.34
2023-05-30T19:33:04.967Z,38.01
2023-05-30T19:35:34.615Z,36.14
2023-05-30T19:38:02.741Z,37.01
2023-05-30T19:40:32.153Z,36.43
2023-05-30T19:43:00.342Z,36.56
2023-05-30T19:45:29.103Z,37.17
2023-05-30T19:47:56.978Z,38.08
2023-05-30T19:50:27.390Z,37.58
2023-05-30T19:52:58.156Z,37.10
2023-05-30T19:55:28.785Z,38.00
2023-05-30T19:57:56.768Z,38.90
2023-05-30T20:00:27.220Z,39.23
2023-05-30T20:02:55.970Z,39.68
2023-05-30T20:05:23.962Z,39.75
2023-05-30T20:07:51.839Z,38.25
2023-05-30T20:10:27.159Z,39.61
2023-05-30T20:13:00.622Z,39.77
2023-05-30T20:15:28.852Z,39.28
2023-05-30T20:17:59.330Z,39.64
2023-05-30T20:20:27.704Z,38.59
2023-05-30T20:22:57.407Z,39.37
2023-05-30T20:25:27.534Z,39.20
2023-05-30T20:27:55.626Z,39.47
2023-05-30T20:30:23.717Z,38.56
2023-05-30T20:32:51.954Z,39.48
2023-05-30T20:35:20.490Z,39.87
2023-05-30T20:37:48.681Z,38.67
2023-05-30T20:40:16.810Z,38.94
2023-05-30T20:42:46.305Z,38.47
2023-05-30T20:45:14.419Z,38.19
2023-05-30T20:47:42.743Z,37.47
2023-05-30T20:50:16.521Z,38.88
2023-05-30T20:52:44.646Z,39.65
2023-05-30T20:55:12.715Z,38.34
2023-05-30T20:57:40.751Z,38.78
2023-05-30T21:00:11.682Z,39.36
2023-05-30T21:02:39.698Z,38.47
2023-05-30T21:05:09.527Z,38.68
2023-05-30T21:07:37.745Z,40.13
2023-05-30T21:10:06.839Z,39.43
2023-05-30T21:12:34.699Z,38.94
2023-05-30T21:15:02.750Z,38.89
2023-05-30T21:17:32.120Z,40.99
2023-05-30T21:20:00.241Z,40.78
2023-05-30T21:22:30.597Z,39.81
2023-05-30T21:24:58.748Z,38.85
2023-05-30T21:27:27.018Z,40.87
2023-05-30T21:29:55.324Z,41.06
2023-05-30T21:32:23.446Z,40.31
2023-05-30T21:34:52.986Z,39.96
2023-05-30T21:37:21.171Z,40.18
2023-05-30T21:39:49.211Z,40.31
2023-05-30T21:42:17.124Z,39.00
2023-05-30T21:44:45.032Z,40.69
2023-05-30T21:47:13.017Z,42.07
2023-05-30T21:49:40.943Z,42.36
2023-05-30T21:52:10.564Z,42.14
2023-05-30T21:54:39.981Z,44.10
2023-05-30T21:57:09.333Z,41.89
2023-05-30T21:59:38.327Z,41.15
2023-05-30T22:02:07.831Z,42.05
2023-05-30T22:04:36.599Z,43.02
2023-05-30T22:07:07.986Z,41.63
2023-05-30T22:09:37.747Z,41.88
2023-05-30T22:12:06.704Z,43.28
2023-05-30T22:14:34.833Z,43.83
2023-05-30T22:17:02.753Z,43.17
2023-05-30T22:19:30.840Z,43.94
2023-05-30T22:24:29.507Z,43.45
2023-05-30T22:26:58.712Z,43.53
2023-05-30T22:29:26.639Z,44.40
2023-05-30T22:31:54.635Z,44.31
2023-05-30T22:34:25.520Z,45.98
2023-05-30T22:36:53.921Z,42.94
2023-05-30T22:39:21.918Z,42.77
2023-05-30T22:41:49.938Z,43.38
2023-05-30T22:44:19.353Z,42.05
2023-05-30T22:46:47.382Z,42.36
2023-05-30T22:49:15.441Z,41.07
2023-05-30T22:51:43.470Z,42.83
2023-05-30T22:54:11.338Z,42.40
2023-05-30T22:56:39.393Z,43.38
2023-05-30T22:59:07.278Z,44.13
2023-05-30T23:01:36.599Z,45.38
2023-05-30T23:04:04.618Z,44.11
2023-05-30T23:06:32.755Z,43.93
2023-05-30T23:09:00.699Z,43.80
2023-05-30T23:11:28.771Z,43.49
2023-05-30T23:13:57.053Z,43.96
2023-05-30T23:16:24.937Z,43.17
2023-05-30T23:18:54.173Z,43.09
2023-05-30T23:21:22.212Z,43.08
2023-05-30T23:23:50.068Z,43.56
2023-05-30T23:26:17.963Z,46.36
2023-05-30T23:28:45.835Z,46.11
2023-05-30T23:31:14.063Z,45.30
2023-05-30T23:33:41.925Z,44.42
2023-05-30T23:36:11.844Z,42.66
2023-05-30T23:38:40.871Z,43.50
2023-05-30T23:41:08.805Z,43.28
2023-05-30T23:43:36.701Z,42.81
2023-05-30T23:46:04.710Z,41.61
2023-05-30T23:48:32.533Z,43.56
2023-05-30T23:51:03.487Z,43.35
2023-05-30T23:53:32.885Z,43.36
2023-05-30T23:56:00.712Z,43.12
2023-05-30T23:58:28.587Z,42.87
